sensor_id;sensor_type;location;lat;lon;timestamp;temperature;humidity
75091;DHT22;63674;48.048;8.306;2022-12-18T00:00:22;-11.70;99.90
75091;DHT22;63674;48.048;8.306;2022-12-18T00:17:46;-11.80;99.90
75091;DHT22;63674;48.048;8.306;2022-12-18T00:40:12;-11.50;99.90
75091;DHT22;63674;48.048;8.306;2022-12-18T00:45:26;-12.70;99.90
75091;DHT22;63674;48.048;8.306;2022-12-18T00:47:57;-11.80;99.90
75091;DHT22;63674;48.048;8.306;2022-12-18T01:05:22;-12.00;99.90
75091;DHT22;63674;48.048;8.306;2022-12-18T01:15:18;-11.90;99.90
75091;DHT22;63674;48.048;8.306;2022-12-18T01:22:46;-11.80;99.90
75091;DHT22;63674;48.048;8.306;2022-12-18T01:30:13;-13.00;99.90
75091;DHT22;63674;48.048;8.306;2022-12-18T01:40:10;-12.10;99.90
75091;DHT22;63674;48.048;8.306;2022-12-18T01:45:24;-11.50;99.90
75091;DHT22;63674;48.048;8.306;2022-12-18T01:47:56;-11.40;99.90
75091;DHT22;63674;48.048;8.306;2022-12-18T01:50:30;-11.30;99.90
75091;DHT22;63674;48.048;8.306;2022-12-18T01:53:03;-11.30;99.90
75091;DHT22;63674;48.048;8.306;2022-12-18T01:55:39;-11.30;99.90
75091;DHT22;63674;48.048;8.306;2022-12-18T02:05:45;-11.40;99.90
75091;DHT22;63674;48.048;8.306;2022-12-18T02:08:19;-11.30;99.90
75091;DHT22;63674;48.048;8.306;2022-12-18T02:10:57;-11.20;99.90
75091;DHT22;63674;48.048;8.306;2022-12-18T02:13:38;-11.20;99.90
75091;DHT22;63674;48.048;8.306;2022-12-18T02:16:19;-11.10;99.90
75091;DHT22;63674;48.048;8.306;2022-12-18T02:18:55;-11.10;99.90
75091;DHT22;63674;48.048;8.306;2022-12-18T02:21:32;-11.10;99.90
75091;DHT22;63674;48.048;8.306;2022-12-18T02:24:18;-11.00;99.90
75091;DHT22;63674;48.048;8.306;2022-12-18T02:26:59;-11.20;99.90
75091;DHT22;63674;48.048;8.306;2022-12-18T02:29:32;-11.40;99.90
75091;DHT22;63674;48.048;8.306;2022-12-18T02:32:08;-11.00;99.90
75091;DHT22;63674;48.048;8.306;2022-12-18T02:34:40;-11.10;99.90
75091;DHT22;63674;48.048;8.306;2022-12-18T02:37:11;-11.00;99.90
75091;DHT22;63674;48.048;8.306;2022-12-18T02:39:42;-11.00;99.90
75091;DHT22;63674;48.048;8.306;2022-12-18T02:42:13;-11.00;99.90
75091;DHT22;63674;48.048;8.306;2022-12-18T02:47:13;-11.10;99.90
75091;DHT22;63674;48.048;8.306;2022-12-18T02:49:49;-11.10;99.90
75091;DHT22;63674;48.048;8.306;2022-12-18T02:52:30;-11.10;99.90
75091;DHT22;63674;48.048;8.306;2022-12-18T02:55:12;-11.10;99.90
75091;DHT22;63674;48.048;8.306;2022-12-18T02:57:50;-11.00;99.90
75091;DHT22;63674;48.048;8.306;2022-12-18T03:00:23;-10.90;99.90
75091;DHT22;63674;48.048;8.306;2022-12-18T03:02:59;-10.80;99.90
75091;DHT22;63674;48.048;8.306;2022-12-18T03:05:35;-10.90;99.90
75091;DHT22;63674;48.048;8.306;2022-12-18T03:08:08;-10.90;99.90
75091;DHT22;63674;48.048;8.306;2022-12-18T03:10:45;-10.80;99.90
75091;DHT22;63674;48.048;8.306;2022-12-18T03:13:23;-10.80;99.90
75091;DHT22;63674;48.048;8.306;2022-12-18T03:16:00;-10.90;99.90
75091;DHT22;63674;48.048;8.306;2022-12-18T03:18:34;-10.90;99.90
75091;DHT22;63674;48.048;8.306;2022-12-18T03:21:06;-9.60;99.90
75091;DHT22;63674;48.048;8.306;2022-12-18T03:23:39;-11.10;99.90
75091;DHT22;63674;48.048;8.306;2022-12-18T03:26:11;-9.50;99.90
75091;DHT22;63674;48.048;8.306;2022-12-18T03:28:47;-11.10;99.90
75091;DHT22;63674;48.048;8.306;2022-12-18T03:31:21;-11.20;99.90
75091;DHT22;63674;48.048;8.306;2022-12-18T03:33:53;-11.20;99.90
75091;DHT22;63674;48.048;8.306;2022-12-18T03:36:23;-11.40;99.90
75091;DHT22;63674;48.048;8.306;2022-12-18T03:41:27;-9.90;99.90
75091;DHT22;63674;48.048;8.306;2022-12-18T03:44:05;-11.70;99.90
75091;DHT22;63674;48.048;8.306;2022-12-18T03:46:42;-11.80;99.90
75091;DHT22;63674;48.048;8.306;2022-12-18T03:49:20;-12.00;99.90
75091;DHT22;63674;48.048;8.306;2022-12-18T03:51:57;-12.10;99.90
75091;DHT22;63674;48.048;8.306;2022-12-18T03:54:30;-12.10;99.90
75091;DHT22;63674;48.048;8.306;2022-12-18T03:57:03;-12.10;99.90
75091;DHT22;63674;48.048;8.306;2022-12-18T03:59:35;-12.20;99.90
75091;DHT22;63674;48.048;8.306;2022-12-18T04:02:07;-12.30;99.90
75091;DHT22;63674;48.048;8.306;2022-12-18T04:04:37;-12.30;99.90
75091;DHT22;63674;48.048;8.306;2022-12-18T04:07:07;-12.30;99.90
75091;DHT22;63674;48.048;8.306;2022-12-18T04:12:08;-12.30;99.90
75091;DHT22;63674;48.048;8.306;2022-12-18T04:14:38;-12.30;99.90
75091;DHT22;63674;48.048;8.306;2022-12-18T04:32:05;-12.40;99.90
75091;DHT22;63674;48.048;8.306;2022-12-18T04:49:28;-12.80;99.90
75091;DHT22;63674;48.048;8.306;2022-12-18T05:06:51;-13.00;99.90
75091;DHT22;63674;48.048;8.306;2022-12-18T05:09:21;-13.00;99.90
75091;DHT22;63674;48.048;8.306;2022-12-18T05:24:15;-13.50;99.90
75091;DHT22;63674;48.048;8.306;2022-12-18T05:41:40;-13.20;99.90
75091;DHT22;63674;48.048;8.306;2022-12-18T05:59:05;-13.40;99.90
75091;DHT22;63674;48.048;8.306;2022-12-18T06:11:36;-13.50;99.90
75091;DHT22;63674;48.048;8.306;2022-12-18T06:14:06;-12.00;99.90
75091;DHT22;63674;48.048;8.306;2022-12-18T06:19:05;-13.60;99.90
75091;DHT22;63674;48.048;8.306;2022-12-18T06:31:31;-13.80;99.90
75091;DHT22;63674;48.048;8.306;2022-12-18T06:34:03;-13.80;99.90
75091;DHT22;63674;48.048;8.306;2022-12-18T06:48:58;-13.70;99.90
75091;DHT22;63674;48.048;8.306;2022-12-18T07:03:52;-13.70;99.90
75091;DHT22;63674;48.048;8.306;2022-12-18T07:06:24;-13.70;99.90
75091;DHT22;63674;48.048;8.306;2022-12-18T07:08:54;-13.70;99.90
75091;DHT22;63674;48.048;8.306;2022-12-18T07:11:24;-13.60;99.90
75091;DHT22;63674;48.048;8.306;2022-12-18T07:21:24;-13.60;99.90
75091;DHT22;63674;48.048;8.306;2022-12-18T07:28:54;-13.40;99.90
75091;DHT22;63674;48.048;8.306;2022-12-18T07:31:25;-13.30;99.90
75091;DHT22;63674;48.048;8.306;2022-12-18T07:36:25;-13.20;99.90
75091;DHT22;63674;48.048;8.306;2022-12-18T07:53:49;-13.20;99.90
75091;DHT22;63674;48.048;8.306;2022-12-18T08:08:53;-13.20;99.90
75091;DHT22;63674;48.048;8.306;2022-12-18T08:11:24;-13.50;99.90
75091;DHT22;63674;48.048;8.306;2022-12-18T08:21:23;-13.30;99.90
75091;DHT22;63674;48.048;8.306;2022-12-18T08:23:58;-13.20;99.90
75091;DHT22;63674;48.048;8.306;2022-12-18T08:26:30;-13.20;99.90
75091;DHT22;63674;48.048;8.306;2022-12-18T08:31:30;-13.10;99.90
75091;DHT22;63674;48.048;8.306;2022-12-18T08:36:29;-13.50;99.90
75091;DHT22;63674;48.048;8.306;2022-12-18T08:38:58;-13.20;99.90
75091;DHT22;63674;48.048;8.306;2022-12-18T08:46:43;-13.30;99.90
75091;DHT22;63674;48.048;8.306;2022-12-18T08:54:12;-13.10;99.90
75091;DHT22;63674;48.048;8.306;2022-12-18T09:01:46;-12.80;99.90
75091;DHT22;63674;48.048;8.306;2022-12-18T09:09:14;-12.50;99.90
75091;DHT22;63674;48.048;8.306;2022-12-18T09:24:15;-12.00;99.90
75091;DHT22;63674;48.048;8.306;2022-12-18T09:34:13;-11.60;99.90
75091;DHT22;63674;48.048;8.306;2022-12-18T09:41:47;-11.30;99.90
75091;DHT22;63674;48.048;8.306;2022-12-18T09:44:23;-11.20;99.90
75091;DHT22;63674;48.048;8.306;2022-12-18T09:46:59;-11.10;99.90
75091;DHT22;63674;48.048;8.306;2022-12-18T09:49:35;-11.00;99.90
75091;DHT22;63674;48.048;8.306;2022-12-18T09:52:11;-11.20;99.90
75091;DHT22;63674;48.048;8.306;2022-12-18T09:54:48;-10.90;99.90
75091;DHT22;63674;48.048;8.306;2022-12-18T09:57:20;-10.80;99.90
75091;DHT22;63674;48.048;8.306;2022-12-18T09:59:55;-10.60;99.90
75091;DHT22;63674;48.048;8.306;2022-12-18T10:02:26;-10.60;99.90
75091;DHT22;63674;48.048;8.306;2022-12-18T10:05:07;-11.40;99.90
75091;DHT22;63674;48.048;8.306;2022-12-18T10:07:55;-10.40;99.90
75091;DHT22;63674;48.048;8.306;2022-12-18T10:10:36;-10.40;99.90
75091;DHT22;63674;48.048;8.306;2022-12-18T10:13:15;-10.20;99.90
75091;DHT22;63674;48.048;8.306;2022-12-18T10:16:00;-10.40;99.90
75091;DHT22;63674;48.048;8.306;2022-12-18T10:18:50;-9.10;99.90
75091;DHT22;63674;48.048;8.306;2022-12-18T10:21:31;-9.80;99.90
75091;DHT22;63674;48.048;8.306;2022-12-18T10:24:12;-9.70;99.90
75091;DHT22;63674;48.048;8.306;2022-12-18T10:26:45;-9.50;99.90
75091;DHT22;63674;48.048;8.306;2022-12-18T10:29:16;-9.50;99.90
75091;DHT22;63674;48.048;8.306;2022-12-18T10:36:43;-10.00;99.90
75091;DHT22;63674;48.048;8.306;2022-12-18T10:39:17;-9.00;99.90
75091;DHT22;63674;48.048;8.306;2022-12-18T10:41:48;-8.80;99.90
75091;DHT22;63674;48.048;8.306;2022-12-18T10:44:19;-8.80;99.90
75091;DHT22;63674;48.048;8.306;2022-12-18T10:46:51;-8.70;99.90
75091;DHT22;63674;48.048;8.306;2022-12-18T10:49:25;-8.60;99.90
75091;DHT22;63674;48.048;8.306;2022-12-18T10:52:06;-8.40;99.90
75091;DHT22;63674;48.048;8.306;2022-12-18T10:57:17;-9.00;99.90
75091;DHT22;63674;48.048;8.306;2022-12-18T10:59:59;-8.30;99.90
75091;DHT22;63674;48.048;8.306;2022-12-18T11:05:28;-7.80;99.90
75091;DHT22;63674;48.048;8.306;2022-12-18T11:07:59;-7.60;99.90
75091;DHT22;63674;48.048;8.306;2022-12-18T11:10:30;-7.70;99.90
75091;DHT22;63674;48.048;8.306;2022-12-18T11:13:16;-7.40;99.90
75091;DHT22;63674;48.048;8.306;2022-12-18T11:18:17;-6.70;99.90
75091;DHT22;63674;48.048;8.306;2022-12-18T11:20:53;-7.10;99.90
75091;DHT22;63674;48.048;8.306;2022-12-18T11:23:25;-6.20;99.90
75091;DHT22;63674;48.048;8.306;2022-12-18T11:25:57;-6.30;99.90
75091;DHT22;63674;48.048;8.306;2022-12-18T11:28:46;-5.30;99.90
75091;DHT22;63674;48.048;8.306;2022-12-18T11:31:22;-5.90;99.90
75091;DHT22;63674;48.048;8.306;2022-12-18T11:34:05;-5.10;99.90
75091;DHT22;63674;48.048;8.306;2022-12-18T11:39:30;-5.80;99.90
75091;DHT22;63674;48.048;8.306;2022-12-18T11:42:09;-5.70;99.90
75091;DHT22;63674;48.048;8.306;2022-12-18T11:44:46;-5.40;99.90
75091;DHT22;63674;48.048;8.306;2022-12-18T11:47:27;-6.10;99.90
75091;DHT22;63674;48.048;8.306;2022-12-18T11:50:01;-5.30;99.90
75091;DHT22;63674;48.048;8.306;2022-12-18T11:52:34;-5.20;99.90
75091;DHT22;63674;48.048;8.306;2022-12-18T11:55:11;-5.90;99.90
75091;DHT22;63674;48.048;8.306;2022-12-18T11:57:48;-5.20;99.90
75091;DHT22;63674;48.048;8.306;2022-12-18T12:00:24;-5.10;99.90
75091;DHT22;63674;48.048;8.306;2022-12-18T12:03:35;-5.20;99.90
75091;DHT22;63674;48.048;8.306;2022-12-18T12:06:16;-5.00;99.90
75091;DHT22;63674;48.048;8.306;2022-12-18T12:08:57;-5.20;99.90
75091;DHT22;63674;48.048;8.306;2022-12-18T12:11:38;-4.90;99.90
75091;DHT22;63674;48.048;8.306;2022-12-18T12:14:35;-5.40;99.90
75091;DHT22;63674;48.048;8.306;2022-12-18T12:17:19;-5.00;99.90
75091;DHT22;63674;48.048;8.306;2022-12-18T12:19:55;-5.40;99.90
75091;DHT22;63674;48.048;8.306;2022-12-18T12:22:35;-4.90;99.90
75091;DHT22;63674;48.048;8.306;2022-12-18T12:25:20;-3.90;99.90
75091;DHT22;63674;48.048;8.306;2022-12-18T12:28:05;-4.80;99.90
75091;DHT22;63674;48.048;8.306;2022-12-18T12:30:49;-3.00;99.90
75091;DHT22;63674;48.048;8.306;2022-12-18T12:33:36;-4.70;99.90
75091;DHT22;63674;48.048;8.306;2022-12-18T12:36:16;-4.70;99.90
75091;DHT22;63674;48.048;8.306;2022-12-18T12:38:53;-4.60;99.90
75091;DHT22;63674;48.048;8.306;2022-12-18T12:41:25;-4.70;99.90
75091;DHT22;63674;48.048;8.306;2022-12-18T12:44:16;-4.70;99.90
75091;DHT22;63674;48.048;8.306;2022-12-18T12:46:50;-5.20;99.90
75091;DHT22;63674;48.048;8.306;2022-12-18T12:49:24;-4.80;99.90
75091;DHT22;63674;48.048;8.306;2022-12-18T12:52:03;-4.80;99.90
75091;DHT22;63674;48.048;8.306;2022-12-18T12:54:34;-4.90;99.90
75091;DHT22;63674;48.048;8.306;2022-12-18T12:57:11;-4.80;99.90
75091;DHT22;63674;48.048;8.306;2022-12-18T12:59:47;-4.80;99.90
75091;DHT22;63674;48.048;8.306;2022-12-18T13:02:23;-4.70;99.90
75091;DHT22;63674;48.048;8.306;2022-12-18T13:05:02;-4.70;99.90
75091;DHT22;63674;48.048;8.306;2022-12-18T13:07:38;-4.70;99.90
75091;DHT22;63674;48.048;8.306;2022-12-18T13:10:26;-4.60;99.90
75091;DHT22;63674;48.048;8.306;2022-12-18T13:13:01;-4.50;99.90
75091;DHT22;63674;48.048;8.306;2022-12-18T13:15:34;-4.50;99.90
75091;DHT22;63674;48.048;8.306;2022-12-18T13:18:17;-4.50;99.90
75091;DHT22;63674;48.048;8.306;2022-12-18T13:20:50;-4.50;99.90
75091;DHT22;63674;48.048;8.306;2022-12-18T13:23:36;-4.40;99.90
75091;DHT22;63674;48.048;8.306;2022-12-18T13:26:32;-4.20;99.90
75091;DHT22;63674;48.048;8.306;2022-12-18T13:29:08;-4.10;99.90
75091;DHT22;63674;48.048;8.306;2022-12-18T13:32:18;-4.70;99.90
75091;DHT22;63674;48.048;8.306;2022-12-18T13:35:39;-5.00;99.90
75091;DHT22;63674;48.048;8.306;2022-12-18T13:38:21;-4.30;99.90
75091;DHT22;63674;48.048;8.306;2022-12-18T13:40:55;-4.30;99.90
75091;DHT22;63674;48.048;8.306;2022-12-18T13:43:39;-2.60;99.90
75091;DHT22;63674;48.048;8.306;2022-12-18T13:46:23;-4.40;99.90
75091;DHT22;63674;48.048;8.306;2022-12-18T13:48:57;-4.70;99.90
75091;DHT22;63674;48.048;8.306;2022-12-18T13:51:28;-4.50;99.90
75091;DHT22;63674;48.048;8.306;2022-12-18T13:54:01;-4.20;99.90
75091;DHT22;63674;48.048;8.306;2022-12-18T13:56:32;-4.50;99.90
75091;DHT22;63674;48.048;8.306;2022-12-18T13:59:18;-4.00;99.90
75091;DHT22;63674;48.048;8.306;2022-12-18T14:01:54;-4.50;99.90
75091;DHT22;63674;48.048;8.306;2022-12-18T14:04:26;-3.80;99.90
75091;DHT22;63674;48.048;8.306;2022-12-18T14:06:58;-3.90;99.90
75091;DHT22;63674;48.048;8.306;2022-12-18T14:09:33;-4.20;99.90
75091;DHT22;63674;48.048;8.306;2022-12-18T14:12:05;-4.70;99.90
75091;DHT22;63674;48.048;8.306;2022-12-18T14:14:53;-3.90;99.90
75091;DHT22;63674;48.048;8.306;2022-12-18T14:17:23;-4.60;99.90
75091;DHT22;63674;48.048;8.306;2022-12-18T14:19:52;-4.00;99.90
75091;DHT22;63674;48.048;8.306;2022-12-18T14:22:23;-4.10;99.90
75091;DHT22;63674;48.048;8.306;2022-12-18T14:25:13;-4.10;99.90
75091;DHT22;63674;48.048;8.306;2022-12-18T14:27:45;-4.20;99.90
75091;DHT22;63674;48.048;8.306;2022-12-18T14:30:26;-4.20;99.90
75091;DHT22;63674;48.048;8.306;2022-12-18T14:33:02;-3.30;99.90
75091;DHT22;63674;48.048;8.306;2022-12-18T14:35:31;-4.20;99.90
75091;DHT22;63674;48.048;8.306;2022-12-18T14:38:21;-4.20;99.90
75091;DHT22;63674;48.048;8.306;2022-12-18T14:40:58;-4.30;99.90
75091;DHT22;63674;48.048;8.306;2022-12-18T14:43:29;-4.30;99.90
75091;DHT22;63674;48.048;8.306;2022-12-18T14:46:00;-4.30;99.90
75091;DHT22;63674;48.048;8.306;2022-12-18T14:48:37;-4.40;99.90
75091;DHT22;63674;48.048;8.306;2022-12-18T14:51:14;-4.60;99.90
75091;DHT22;63674;48.048;8.306;2022-12-18T14:53:45;-4.40;99.90
75091;DHT22;63674;48.048;8.306;2022-12-18T14:56:22;-4.50;99.90
75091;DHT22;63674;48.048;8.306;2022-12-18T14:58:54;-4.50;99.90
75091;DHT22;63674;48.048;8.306;2022-12-18T15:01:26;-4.60;99.90
75091;DHT22;63674;48.048;8.306;2022-12-18T15:03:58;-4.40;99.90
75091;DHT22;63674;48.048;8.306;2022-12-18T15:06:31;-4.80;99.90
75091;DHT22;63674;48.048;8.306;2022-12-18T15:09:03;-4.50;99.90
75091;DHT22;63674;48.048;8.306;2022-12-18T15:11:43;-3.30;99.90
75091;DHT22;63674;48.048;8.306;2022-12-18T15:14:31;-4.40;99.90
75091;DHT22;63674;48.048;8.306;2022-12-18T15:17:16;-5.20;99.90
75091;DHT22;63674;48.048;8.306;2022-12-18T15:19:48;-4.70;99.90
75091;DHT22;63674;48.048;8.306;2022-12-18T15:22:24;-4.90;99.90
75091;DHT22;63674;48.048;8.306;2022-12-18T15:24:54;-4.80;99.90
75091;DHT22;63674;48.048;8.306;2022-12-18T15:27:31;-5.30;99.90
75091;DHT22;63674;48.048;8.306;2022-12-18T15:30:17;-4.90;99.90
75091;DHT22;63674;48.048;8.306;2022-12-18T15:32:48;-5.50;99.90
75091;DHT22;63674;48.048;8.306;2022-12-18T15:35:20;-4.90;99.90
75091;DHT22;63674;48.048;8.306;2022-12-18T15:37:51;-4.90;99.90
75091;DHT22;63674;48.048;8.306;2022-12-18T15:40:22;-4.90;99.90
75091;DHT22;63674;48.048;8.306;2022-12-18T15:42:53;-4.90;99.90
75091;DHT22;63674;48.048;8.306;2022-12-18T15:45:54;-5.70;99.90
75091;DHT22;63674;48.048;8.306;2022-12-18T15:48:23;-5.30;99.90
75091;DHT22;63674;48.048;8.306;2022-12-18T15:50:54;-5.00;99.90
75091;DHT22;63674;48.048;8.306;2022-12-18T15:53:29;-4.60;99.90
75091;DHT22;63674;48.048;8.306;2022-12-18T15:58:46;-4.90;99.90
75091;DHT22;63674;48.048;8.306;2022-12-18T16:01:15;-4.70;99.90
75091;DHT22;63674;48.048;8.306;2022-12-18T16:03:44;-4.90;99.90
75091;DHT22;63674;48.048;8.306;2022-12-18T16:06:14;-5.50;99.90
75091;DHT22;63674;48.048;8.306;2022-12-18T16:08:42;-5.10;99.90
75091;DHT22;63674;48.048;8.306;2022-12-18T16:11:20;-4.90;99.90
75091;DHT22;63674;48.048;8.306;2022-12-18T16:14:08;-4.00;99.90
75091;DHT22;63674;48.048;8.306;2022-12-18T16:16:44;-5.70;99.90
75091;DHT22;63674;48.048;8.306;2022-12-18T16:19:12;-5.20;99.90
75091;DHT22;63674;48.048;8.306;2022-12-18T16:21:43;-4.90;99.90
75091;DHT22;63674;48.048;8.306;2022-12-18T16:24:15;-4.90;99.90
75091;DHT22;63674;48.048;8.306;2022-12-18T16:26:44;-5.30;99.90
75091;DHT22;63674;48.048;8.306;2022-12-18T16:29:13;-5.60;99.90
75091;DHT22;63674;48.048;8.306;2022-12-18T16:31:42;-4.90;99.90
75091;DHT22;63674;48.048;8.306;2022-12-18T16:34:15;-5.00;99.90
75091;DHT22;63674;48.048;8.306;2022-12-18T16:36:55;-5.20;99.90
75091;DHT22;63674;48.048;8.306;2022-12-18T16:39:31;-4.90;99.90
75091;DHT22;63674;48.048;8.306;2022-12-18T16:42:02;-4.80;99.90
75091;DHT22;63674;48.048;8.306;2022-12-18T16:44:32;-5.00;99.90
75091;DHT22;63674;48.048;8.306;2022-12-18T16:47:02;-5.70;99.90
75091;DHT22;63674;48.048;8.306;2022-12-18T16:49:30;-5.50;99.90
75091;DHT22;63674;48.048;8.306;2022-12-18T16:52:00;-4.90;99.90
75091;DHT22;63674;48.048;8.306;2022-12-18T16:56:59;-2.90;99.90
75091;DHT22;63674;48.048;8.306;2022-12-18T16:59:28;-4.50;99.90
75091;DHT22;63674;48.048;8.306;2022-12-18T17:01:57;-4.80;99.90
75091;DHT22;63674;48.048;8.306;2022-12-18T17:04:26;-5.30;99.90
75091;DHT22;63674;48.048;8.306;2022-12-18T17:06:55;-4.40;99.90
75091;DHT22;63674;48.048;8.306;2022-12-18T17:09:25;-4.70;99.90
75091;DHT22;63674;48.048;8.306;2022-12-18T17:11:54;-2.50;99.90
75091;DHT22;63674;48.048;8.306;2022-12-18T17:14:24;-4.50;99.90
75091;DHT22;63674;48.048;8.306;2022-12-18T17:16:53;-4.90;99.90
75091;DHT22;63674;48.048;8.306;2022-12-18T17:19:42;-4.90;99.90
75091;DHT22;63674;48.048;8.306;2022-12-18T17:22:11;-4.90;99.90
75091;DHT22;63674;48.048;8.306;2022-12-18T17:24:41;-5.50;99.90
75091;DHT22;63674;48.048;8.306;2022-12-18T17:27:09;-4.90;99.90
75091;DHT22;63674;48.048;8.306;2022-12-18T17:29:38;-5.20;99.90
75091;DHT22;63674;48.048;8.306;2022-12-18T17:32:14;-5.50;99.90
75091;DHT22;63674;48.048;8.306;2022-12-18T17:34:43;-4.80;99.90
75091;DHT22;63674;48.048;8.306;2022-12-18T17:37:11;-4.60;99.90
75091;DHT22;63674;48.048;8.306;2022-12-18T17:39:41;-4.70;99.90
75091;DHT22;63674;48.048;8.306;2022-12-18T17:42:10;-4.70;99.90
75091;DHT22;63674;48.048;8.306;2022-12-18T17:44:40;-5.60;99.90
75091;DHT22;63674;48.048;8.306;2022-12-18T17:47:10;-5.20;99.90
75091;DHT22;63674;48.048;8.306;2022-12-18T17:52:08;-3.90;99.90
75091;DHT22;63674;48.048;8.306;2022-12-18T17:54:37;-4.70;99.90
75091;DHT22;63674;48.048;8.306;2022-12-18T17:57:09;-4.00;99.90
75091;DHT22;63674;48.048;8.306;2022-12-18T17:59:38;-4.70;99.90
75091;DHT22;63674;48.048;8.306;2022-12-18T18:02:09;-4.60;99.90
75091;DHT22;63674;48.048;8.306;2022-12-18T18:07:08;-4.90;99.90
75091;DHT22;63674;48.048;8.306;2022-12-18T18:09:37;-4.80;99.90
75091;DHT22;63674;48.048;8.306;2022-12-18T18:14:54;-3.00;99.90
75091;DHT22;63674;48.048;8.306;2022-12-18T18:17:23;-2.40;99.90
75091;DHT22;63674;48.048;8.306;2022-12-18T18:22:20;-4.20;99.90
75091;DHT22;63674;48.048;8.306;2022-12-18T18:27:19;-4.60;99.90
75091;DHT22;63674;48.048;8.306;2022-12-18T18:29:47;-4.90;99.90
75091;DHT22;63674;48.048;8.306;2022-12-18T18:32:17;-4.60;99.90
75091;DHT22;63674;48.048;8.306;2022-12-18T18:37:15;-4.70;99.90
75091;DHT22;63674;48.048;8.306;2022-12-18T18:39:43;-5.10;99.90
75091;DHT22;63674;48.048;8.306;2022-12-18T18:42:12;-4.10;99.90
75091;DHT22;63674;48.048;8.306;2022-12-18T18:44:41;-4.50;99.90
75091;DHT22;63674;48.048;8.306;2022-12-18T18:49:45;-4.70;99.90
75091;DHT22;63674;48.048;8.306;2022-12-18T18:52:14;-4.50;99.90
75091;DHT22;63674;48.048;8.306;2022-12-18T18:54:42;-4.90;99.90
75091;DHT22;63674;48.048;8.306;2022-12-18T18:57:32;-4.80;99.90
75091;DHT22;63674;48.048;8.306;2022-12-18T19:00:00;-4.60;99.90
75091;DHT22;63674;48.048;8.306;2022-12-18T19:02:30;-4.80;99.90
75091;DHT22;63674;48.048;8.306;2022-12-18T19:04:59;-5.10;99.90
75091;DHT22;63674;48.048;8.306;2022-12-18T19:07:28;-4.60;99.90
75091;DHT22;63674;48.048;8.306;2022-12-18T19:09:58;-4.60;99.90
75091;DHT22;63674;48.048;8.306;2022-12-18T19:12:33;-2.30;99.90
75091;DHT22;63674;48.048;8.306;2022-12-18T19:15:19;-4.50;99.90
75091;DHT22;63674;48.048;8.306;2022-12-18T19:17:50;-4.20;99.90
75091;DHT22;63674;48.048;8.306;2022-12-18T19:20:19;-4.80;99.90
75091;DHT22;63674;48.048;8.306;2022-12-18T19:25:22;-4.50;99.90
75091;DHT22;63674;48.048;8.306;2022-12-18T19:28:06;-5.30;99.90
75091;DHT22;63674;48.048;8.306;2022-12-18T19:30:47;-5.30;99.90
75091;DHT22;63674;48.048;8.306;2022-12-18T19:33:27;-4.60;99.90
75091;DHT22;63674;48.048;8.306;2022-12-18T19:36:14;-4.30;99.90
75091;DHT22;63674;48.048;8.306;2022-12-18T19:38:46;-4.40;99.90
75091;DHT22;63674;48.048;8.306;2022-12-18T19:41:16;-2.50;99.90
75091;DHT22;63674;48.048;8.306;2022-12-18T19:43:46;-4.30;99.90
75091;DHT22;63674;48.048;8.306;2022-12-18T19:46:17;-4.50;99.90
75091;DHT22;63674;48.048;8.306;2022-12-18T19:48:48;-5.20;99.90
75091;DHT22;63674;48.048;8.306;2022-12-18T19:51:19;-4.90;99.90
75091;DHT22;63674;48.048;8.306;2022-12-18T19:53:49;-2.10;99.90
75091;DHT22;63674;48.048;8.306;2022-12-18T19:56:26;-4.20;99.90
75091;DHT22;63674;48.048;8.306;2022-12-18T19:58:55;-2.10;99.90
75091;DHT22;63674;48.048;8.306;2022-12-18T20:01:25;-4.70;99.90
75091;DHT22;63674;48.048;8.306;2022-12-18T20:03:57;-4.10;99.90
75091;DHT22;63674;48.048;8.306;2022-12-18T20:06:28;-4.20;99.90
75091;DHT22;63674;48.048;8.306;2022-12-18T20:08:59;-4.80;99.90
75091;DHT22;63674;48.048;8.306;2022-12-18T20:11:29;-2.20;99.90
75091;DHT22;63674;48.048;8.306;2022-12-18T20:13:58;-5.00;99.90
75091;DHT22;63674;48.048;8.306;2022-12-18T20:16:29;-3.40;99.90
75091;DHT22;63674;48.048;8.306;2022-12-18T20:18:59;-4.40;99.90
75091;DHT22;63674;48.048;8.306;2022-12-18T20:21:28;-5.10;99.90
75091;DHT22;63674;48.048;8.306;2022-12-18T20:23:57;-4.40;99.90
75091;DHT22;63674;48.048;8.306;2022-12-18T20:26:26;-4.40;99.90
75091;DHT22;63674;48.048;8.306;2022-12-18T20:28:55;-4.60;99.90
75091;DHT22;63674;48.048;8.306;2022-12-18T20:31:23;-5.00;99.90
75091;DHT22;63674;48.048;8.306;2022-12-18T20:33:54;-4.30;99.90
75091;DHT22;63674;48.048;8.306;2022-12-18T20:36:30;-5.30;99.90
75091;DHT22;63674;48.048;8.306;2022-12-18T20:39:02;-2.30;99.90
75091;DHT22;63674;48.048;8.306;2022-12-18T20:41:34;-2.60;99.90
75091;DHT22;63674;48.048;8.306;2022-12-18T20:44:06;-4.20;99.90
75091;DHT22;63674;48.048;8.306;2022-12-18T20:46:52;-4.90;99.90
75091;DHT22;63674;48.048;8.306;2022-12-18T20:49:24;-3.30;99.90
75091;DHT22;63674;48.048;8.306;2022-12-18T20:51:56;-4.10;99.90
75091;DHT22;63674;48.048;8.306;2022-12-18T20:54:26;-4.10;99.90
75091;DHT22;63674;48.048;8.306;2022-12-18T20:56:55;-4.70;99.90
75091;DHT22;63674;48.048;8.306;2022-12-18T20:59:24;-4.30;99.90
75091;DHT22;63674;48.048;8.306;2022-12-18T21:01:53;-4.00;99.90
75091;DHT22;63674;48.048;8.306;2022-12-18T21:04:22;-4.10;99.90
75091;DHT22;63674;48.048;8.306;2022-12-18T21:06:51;-4.90;99.90
75091;DHT22;63674;48.048;8.306;2022-12-18T21:09:29;-3.10;99.90
75091;DHT22;63674;48.048;8.306;2022-12-18T21:12:05;-4.90;99.90
75091;DHT22;63674;48.048;8.306;2022-12-18T21:14:56;-4.80;99.90
75091;DHT22;63674;48.048;8.306;2022-12-18T21:17:25;-3.90;99.90
75091;DHT22;63674;48.048;8.306;2022-12-18T21:19:55;-3.40;99.90
75091;DHT22;63674;48.048;8.306;2022-12-18T21:22:25;-3.90;99.90
75091;DHT22;63674;48.048;8.306;2022-12-18T21:24:54;-3.90;99.90
75091;DHT22;63674;48.048;8.306;2022-12-18T21:27:23;-3.90;99.90
75091;DHT22;63674;48.048;8.306;2022-12-18T21:29:51;-4.00;99.90
75091;DHT22;63674;48.048;8.306;2022-12-18T21:32:20;-2.80;99.90
75091;DHT22;63674;48.048;8.306;2022-12-18T21:34:51;-4.30;99.90
75091;DHT22;63674;48.048;8.306;2022-12-18T21:37:20;-4.20;99.90
75091;DHT22;63674;48.048;8.306;2022-12-18T21:39:50;-3.50;99.90
75091;DHT22;63674;48.048;8.306;2022-12-18T21:42:19;-3.90;99.90
75091;DHT22;63674;48.048;8.306;2022-12-18T21:45:19;-3.50;99.90
75091;DHT22;63674;48.048;8.306;2022-12-18T21:47:48;-4.60;99.90
75091;DHT22;63674;48.048;8.306;2022-12-18T21:50:16;-2.60;99.90
75091;DHT22;63674;48.048;8.306;2022-12-18T21:52:45;-3.80;99.90
75091;DHT22;63674;48.048;8.306;2022-12-18T21:55:15;-3.80;99.90
75091;DHT22;63674;48.048;8.306;2022-12-18T22:00:14;-3.80;99.90
75091;DHT22;63674;48.048;8.306;2022-12-18T22:02:46;-1.60;99.90
75091;DHT22;63674;48.048;8.306;2022-12-18T22:05:35;-3.90;99.90
75091;DHT22;63674;48.048;8.306;2022-12-18T22:08:04;-4.10;99.90
75091;DHT22;63674;48.048;8.306;2022-12-18T22:10:35;-4.30;99.90
75091;DHT22;63674;48.048;8.306;2022-12-18T22:13:07;-3.00;99.90
75091;DHT22;63674;48.048;8.306;2022-12-18T22:15:35;-3.60;99.90
75091;DHT22;63674;48.048;8.306;2022-12-18T22:18:04;-3.70;99.90
75091;DHT22;63674;48.048;8.306;2022-12-18T22:20:33;-3.20;99.90
75091;DHT22;63674;48.048;8.306;2022-12-18T22:23:01;-3.80;99.90